createdAt,value
2017-09-03T00:00:50.540Z,75.40
2017-09-03T00:03:21.236Z,75.40
2017-09-03T00:05:51.937Z,75.30
2017-09-03T00:08:22.942Z,75.20
2017-09-03T00:10:53.711Z,75.00
2017-09-03T00:13:24.877Z,75.10
2017-09-03T00:15:55.647Z,75.00
2017-09-03T00:18:26.094Z,75.10
2017-09-03T00:20:56.580Z,75.30
2017-09-03T00:23:27.083Z,75.40
2017-09-03T00:25:57.976Z,75.30
2017-09-03T00:28:29.970Z,75.30
2017-09-03T00:31:00.892Z,75.30
2017-09-03T00:33:31.131Z,75.30
2017-09-03T00:36:02.179Z,75.30
2017-09-03T00:38:32.447Z,75.30
2017-09-03T00:41:05.679Z,75.90
2017-09-03T00:43:36.495Z,76.10
2017-09-03T00:46:07.965Z,76.50
2017-09-03T00:48:38.511Z,76.50
2017-09-03T00:51:09.394Z,76.40
2017-09-03T00:53:40.095Z,76.80
2017-09-03T00:56:11.016Z,76.60
2017-09-03T00:58:41.355Z,76.80
2017-09-03T01:01:12.133Z,76.90
2017-09-03T01:03:42.944Z,76.50
2017-09-03T01:06:14.024Z,76.30
2017-09-03T01:08:45.636Z,76.30
2017-09-03T01:11:16.673Z,76.40
2017-09-03T01:13:47.241Z,76.10
2017-09-03T01:16:19.203Z,75.90
2017-09-03T01:18:49.723Z,75.70
2017-09-03T01:21:20.532Z,75.50
2017-09-03T01:23:51.150Z,75.60
2017-09-03T01:26:21.946Z,75.70
2017-09-03T01:28:52.471Z,75.60
2017-09-03T01:31:23.372Z,75.60
2017-09-03T01:33:54.142Z,75.80
2017-09-03T01:36:24.925Z,75.80
2017-09-03T01:38:55.798Z,75.70
2017-09-03T01:41:26.486Z,75.60
2017-09-03T01:43:57.262Z,75.40
2017-09-03T01:46:28.193Z,75.50
2017-09-03T01:49:02.211Z,75.10
2017-09-03T01:51:33.527Z,75.40
2017-09-03T01:54:04.464Z,75.40
2017-09-03T01:56:35.192Z,75.40
2017-09-03T01:59:06.576Z,75.70
2017-09-03T02:01:37.546Z,75.90
2017-09-03T02:04:08.246Z,75.90
2017-09-03T02:06:39.323Z,76.10
2017-09-03T02:09:09.981Z,76.80
2017-09-03T02:11:41.298Z,76.90
2017-09-03T02:14:11.859Z,78.20
2017-09-03T02:16:42.390Z,77.60
2017-09-03T02:19:13.268Z,76.80
2017-09-03T02:21:44.363Z,76.80
2017-09-03T02:24:14.699Z,76.50
2017-09-03T02:26:45.940Z,76.30
2017-09-03T02:29:17.162Z,76.40
2017-09-03T02:31:48.081Z,76.60
2017-09-03T02:34:19.008Z,76.70
2017-09-03T02:36:50.327Z,76.70
2017-09-03T02:39:21.075Z,76.40
2017-09-03T02:41:51.887Z,76.80
2017-09-03T02:44:23.233Z,76.50
2017-09-03T02:46:53.757Z,76.50
2017-09-03T02:49:24.754Z,76.60
2017-09-03T02:51:55.835Z,76.40
2017-09-03T02:54:27.651Z,76.20
2017-09-03T02:56:58.480Z,76.20
2017-09-03T02:59:29.057Z,76.30
2017-09-03T03:02:01.186Z,76.00
2017-09-03T03:04:31.957Z,76.00
2017-09-03T03:07:03.331Z,76.40
2017-09-03T03:09:34.928Z,76.40
2017-09-03T03:12:05.774Z,76.40
2017-09-03T03:14:36.682Z,76.40
2017-09-03T03:17:07.484Z,76.30
2017-09-03T03:19:38.602Z,76.60
2017-09-03T03:22:09.797Z,76.90
2017-09-03T03:24:40.964Z,78.00
2017-09-03T03:27:11.663Z,77.60
2017-09-03T03:29:43.824Z,77.30
2017-09-03T03:32:15.273Z,77.10
2017-09-03T03:34:46.640Z,77.20
2017-09-03T03:37:17.716Z,77.20
2017-09-03T03:39:49.845Z,77.00
2017-09-03T03:42:20.747Z,76.70
2017-09-03T03:44:51.578Z,76.50
2017-09-03T03:47:22.671Z,76.60
2017-09-03T03:49:54.206Z,76.40
2017-09-03T03:52:26.112Z,76.30
2017-09-03T03:54:56.856Z,76.30
2017-09-03T03:57:27.615Z,76.50
2017-09-03T03:59:58.829Z,76.60
2017-09-03T04:02:29.997Z,76.60
2017-09-03T04:05:00.743Z,76.50
2017-09-03T04:07:33.730Z,76.70
2017-09-03T04:10:04.589Z,77.50
2017-09-03T04:12:35.866Z,77.20
2017-09-03T04:15:07.199Z,76.90
2017-09-03T04:17:38.689Z,76.90
2017-09-03T04:20:09.930Z,77.00
2017-09-03T04:22:40.943Z,77.70
2017-09-03T04:25:12.377Z,76.70
2017-09-03T04:27:43.395Z,76.40
2017-09-03T04:30:14.776Z,76.20
2017-09-03T04:32:46.239Z,76.20
2017-09-03T04:35:17.265Z,76.20
2017-09-03T04:37:48.658Z,76.20
2017-09-03T04:40:19.700Z,76.40
2017-09-03T04:42:51.257Z,76.80
2017-09-03T04:45:22.097Z,77.20
2017-09-03T04:47:53.471Z,77.80
2017-09-03T04:50:27.136Z,77.40
2017-09-03T04:52:58.567Z,77.40
2017-09-03T04:55:32.710Z,77.80
2017-09-03T04:58:11.152Z,78.50
2017-09-03T05:00:42.480Z,78.30
2017-09-03T05:03:14.042Z,78.30
2017-09-03T05:05:45.782Z,79.70
2017-09-03T05:08:18.898Z,79.70
2017-09-03T05:10:51.012Z,80.00
2017-09-03T05:13:22.288Z,80.10
2017-09-03T05:15:54.104Z,79.60
2017-09-03T05:18:24.585Z,79.70
2017-09-03T05:20:55.615Z,79.60
2017-09-03T05:23:27.970Z,79.60
2017-09-03T05:25:59.188Z,79.10
2017-09-03T05:28:30.147Z,79.00
2017-09-03T05:31:01.429Z,79.40
2017-09-03T05:33:37.281Z,79.70
2017-09-03T05:36:15.020Z,79.80
2017-09-03T05:38:46.484Z,79.50
2017-09-03T05:41:17.120Z,78.90
2017-09-03T05:43:47.793Z,79.60
2017-09-03T05:46:18.871Z,79.90
2017-09-03T05:48:50.858Z,80.50
2017-09-03T05:51:21.551Z,79.90
2017-09-03T05:53:52.023Z,80.30
2017-09-03T05:56:23.272Z,80.20
2017-09-03T05:58:54.150Z,79.60
2017-09-03T06:01:25.591Z,79.90
2017-09-03T06:03:56.160Z,80.10
2017-09-03T06:06:28.049Z,80.50
2017-09-03T06:08:58.916Z,80.90
2017-09-03T06:11:30.113Z,80.80
2017-09-03T06:14:00.734Z,80.90
2017-09-03T06:16:31.393Z,81.30
2017-09-03T06:19:02.169Z,82.70
2017-09-03T06:21:33.198Z,84.80
2017-09-03T06:24:04.084Z,88.00
2017-09-03T06:26:35.048Z,85.10
2017-09-03T06:29:06.171Z,82.70
2017-09-03T06:31:36.785Z,82.60
2017-09-03T06:34:07.144Z,84.20
2017-09-03T06:36:38.494Z,87.60
2017-09-03T06:39:09.618Z,84.30
2017-09-03T06:41:41.049Z,85.50
2017-09-03T06:44:11.624Z,83.20
2017-09-03T06:46:42.315Z,83.40
2017-09-03T06:49:14.979Z,82.90
2017-09-03T06:51:45.707Z,81.00
2017-09-03T06:54:16.534Z,82.30
2017-09-03T06:56:48.941Z,82.40
2017-09-03T06:59:19.980Z,80.30
2017-09-03T07:01:51.139Z,79.80
2017-09-03T07:04:22.280Z,79.30
2017-09-03T07:06:52.748Z,78.80
2017-09-03T07:09:24.552Z,78.50
2017-09-03T07:11:55.343Z,78.50
2017-09-03T07:14:26.313Z,77.30
2017-09-03T07:16:57.030Z,76.80
2017-09-03T07:19:27.503Z,74.80
2017-09-03T07:21:58.068Z,76.70
2017-09-03T07:24:28.792Z,75.80
2017-09-03T07:27:00.054Z,71.70
2017-09-03T07:29:30.778Z,71.70
2017-09-03T07:32:01.213Z,70.60
2017-09-03T07:34:32.353Z,74.40
2017-09-03T07:37:03.721Z,74.10
2017-09-03T07:39:35.366Z,70.30
2017-09-03T07:42:06.991Z,71.70
2017-09-03T07:44:38.152Z,71.60
2017-09-03T07:47:08.484Z,73.70
2017-09-03T07:49:38.958Z,71.40
2017-09-03T07:52:09.910Z,68.90
2017-09-03T07:54:40.477Z,67.90
2017-09-03T07:57:11.110Z,64.40
2017-09-03T07:59:41.884Z,66.00
2017-09-03T08:02:12.733Z,65.80
2017-09-03T08:04:43.098Z,65.10
2017-09-03T08:07:13.531Z,64.40
2017-09-03T08:09:43.849Z,64.20
2017-09-03T08:12:14.862Z,62.20
2017-09-03T08:14:45.704Z,58.80
2017-09-03T08:17:16.518Z,58.60
2017-09-03T08:19:46.963Z,59.10
2017-09-03T08:22:17.611Z,59.70
2017-09-03T08:24:48.909Z,56.70
2017-09-03T08:27:19.274Z,57.70
2017-09-03T08:29:50.234Z,59.90
2017-09-03T08:32:20.814Z,63.10
2017-09-03T08:34:51.732Z,60.30
2017-09-03T08:37:22.378Z,59.30
2017-09-03T08:39:53.388Z,55.70
2017-09-03T08:42:23.951Z,57.60
2017-09-03T08:44:55.804Z,54.60
2017-09-03T08:47:27.753Z,54.50
2017-09-03T08:49:58.513Z,56.10
2017-09-03T08:52:29.035Z,56.90
2017-09-03T08:54:59.824Z,53.70
2017-09-03T08:57:30.686Z,53.40
2017-09-03T09:00:01.894Z,50.60
2017-09-03T09:02:32.703Z,50.80
2017-09-03T09:05:04.590Z,53.40
2017-09-03T09:07:35.694Z,53.30
2017-09-03T09:10:06.016Z,52.20
2017-09-03T09:12:36.819Z,53.30
2017-09-03T09:15:07.438Z,48.20
2017-09-03T09:17:37.721Z,48.50
2017-09-03T09:20:09.490Z,46.80
2017-09-03T09:22:39.942Z,46.70
2017-09-03T09:25:10.750Z,48.30
2017-09-03T09:27:41.419Z,48.70
2017-09-03T09:30:12.347Z,47.90
2017-09-03T09:32:42.929Z,46.00
2017-09-03T09:35:13.641Z,47.20
2017-09-03T09:37:44.073Z,45.30
2017-09-03T09:40:14.542Z,46.60
2017-09-03T09:42:44.929Z,47.00
2017-09-03T09:45:15.790Z,48.50
2017-09-03T09:47:46.272Z,48.90
2017-09-03T09:50:17.199Z,49.70
2017-09-03T09:52:48.112Z,48.80
2017-09-03T09:55:19.069Z,45.80
2017-09-03T09:57:49.639Z,46.70
2017-09-03T10:00:20.258Z,46.60
2017-09-03T10:02:51.228Z,47.50
2017-09-03T10:05:22.077Z,46.40
2017-09-03T10:07:52.801Z,45.50
2017-09-03T10:10:23.203Z,44.70
2017-09-03T10:12:53.538Z,44.10
2017-09-03T10:15:25.042Z,42.60
2017-09-03T10:17:55.537Z,42.60
2017-09-03T10:20:25.952Z,46.70
2017-09-03T10:22:56.889Z,45.30
2017-09-03T10:25:27.212Z,47.90
2017-09-03T10:27:57.638Z,49.90
2017-09-03T10:30:27.997Z,43.90
2017-09-03T10:32:58.378Z,45.00
2017-09-03T10:35:29.076Z,44.20
2017-09-03T10:37:59.967Z,45.70
2017-09-03T10:40:30.485Z,45.10
2017-09-03T10:43:01.444Z,47.10
2017-09-03T10:45:33.127Z,48.50
2017-09-03T10:48:03.624Z,48.50
2017-09-03T10:50:34.119Z,48.10
2017-09-03T10:53:04.606Z,49.50
2017-09-03T10:55:35.465Z,49.70
2017-09-03T10:58:06.682Z,46.50
2017-09-03T11:00:37.130Z,46.40
2017-09-03T11:03:07.783Z,45.70
2017-09-03T11:05:38.210Z,46.40
2017-09-03T11:08:08.551Z,45.30
2017-09-03T11:10:39.303Z,46.00
2017-09-03T11:13:10.128Z,48.70
2017-09-03T11:15:40.516Z,50.30
2017-09-03T11:18:11.421Z,50.10
2017-09-03T11:20:42.145Z,49.80
2017-09-03T11:23:12.885Z,51.40
2017-09-03T11:25:43.598Z,53.00
2017-09-03T11:28:14.135Z,52.50
2017-09-03T11:30:44.453Z,51.00
2017-09-03T11:33:14.984Z,52.70
2017-09-03T11:35:45.559Z,52.10
2017-09-03T11:38:16.730Z,52.00
2017-09-03T11:40:47.483Z,52.00
2017-09-03T11:43:18.934Z,53.20
2017-09-03T11:45:49.926Z,53.10
2017-09-03T11:48:20.445Z,51.60
2017-09-03T11:50:50.976Z,52.00
2017-09-03T11:53:21.671Z,52.80
2017-09-03T11:55:52.142Z,52.60
2017-09-03T11:58:23.127Z,52.30
2017-09-03T12:00:53.609Z,52.90
2017-09-03T12:03:23.972Z,51.50
2017-09-03T12:05:55.106Z,51.10
2017-09-03T12:08:26.332Z,52.70
2017-09-03T12:10:56.730Z,52.60
2017-09-03T12:13:27.507Z,49.60
2017-09-03T12:15:58.591Z,47.00
2017-09-03T12:18:31.598Z,46.90
2017-09-03T12:21:03.097Z,50.40
2017-09-03T12:23:34.582Z,48.70
2017-09-03T12:26:04.962Z,48.60
2017-09-03T12:28:35.362Z,45.40
2017-09-03T12:31:05.722Z,47.90
2017-09-03T12:33:36.204Z,48.20
2017-09-03T12:36:06.539Z,49.80
2017-09-03T12:38:37.018Z,43.20
2017-09-03T12:41:08.500Z,45.50
2017-09-03T12:43:39.337Z,45.60
2017-09-03T12:46:09.855Z,46.50
2017-09-03T12:48:40.282Z,49.30
2017-09-03T12:51:10.673Z,47.40
2017-09-03T12:53:41.390Z,44.10
2017-09-03T12:56:11.884Z,48.10
2017-09-03T12:58:42.350Z,43.10
2017-09-03T13:01:12.931Z,43.40
2017-09-03T13:03:43.689Z,43.10
2017-09-03T13:06:14.154Z,44.00
2017-09-03T13:08:45.745Z,43.60
2017-09-03T13:11:16.219Z,43.60
2017-09-03T13:13:46.691Z,46.50
2017-09-03T13:16:17.040Z,45.40
2017-09-03T13:18:47.866Z,44.10
2017-09-03T13:21:18.209Z,42.30
2017-09-03T13:23:48.974Z,43.00
2017-09-03T13:26:19.898Z,44.50
2017-09-03T13:28:51.102Z,48.10
2017-09-03T13:31:21.609Z,42.70
2017-09-03T13:33:51.982Z,41.20
2017-09-03T13:36:22.449Z,41.40
2017-09-03T13:38:52.769Z,41.50
2017-09-03T13:41:23.112Z,42.60
2017-09-03T13:43:55.475Z,43.40
2017-09-03T13:46:25.758Z,43.20
2017-09-03T13:48:56.083Z,42.20
2017-09-03T13:51:26.442Z,42.70
2017-09-03T13:53:57.020Z,44.10
2017-09-03T13:56:27.566Z,44.00
2017-09-03T13:58:57.910Z,44.50
2017-09-03T14:01:28.257Z,43.90
2017-09-03T14:03:58.793Z,46.00
2017-09-03T14:06:29.452Z,43.30
2017-09-03T14:09:06.358Z,44.50
2017-09-03T14:11:37.766Z,44.40
2017-09-03T14:14:08.943Z,46.00
2017-09-03T14:16:39.229Z,45.90
2017-09-03T14:19:09.644Z,42.30
2017-09-03T14:21:40.131Z,43.10
2017-09-03T14:24:11.085Z,44.00
2017-09-03T14:26:41.865Z,45.90
2017-09-03T14:29:12.811Z,39.50
2017-09-03T14:31:43.227Z,41.00
2017-09-03T14:34:13.555Z,39.20
2017-09-03T14:36:45.038Z,39.70
2017-09-03T14:39:17.026Z,39.60
2017-09-03T14:41:47.523Z,42.90
2017-09-03T14:44:19.198Z,41.80
2017-09-03T14:46:49.942Z,41.80
2017-09-03T14:49:25.981Z,41.80
2017-09-03T14:51:57.509Z,42.20
2017-09-03T14:54:34.935Z,42.00
2017-09-03T14:57:06.069Z,40.80
2017-09-03T14:59:36.535Z,42.50
2017-09-03T15:02:06.982Z,41.80
2017-09-03T15:04:37.403Z,41.90
2017-09-03T15:07:07.712Z,42.40
2017-09-03T15:09:38.149Z,43.80
2017-09-03T15:12:08.592Z,44.30
2017-09-03T15:14:38.938Z,44.50
2017-09-03T15:17:10.851Z,43.70
2017-09-03T15:19:41.251Z,44.60
2017-09-03T15:22:12.573Z,44.70
2017-09-03T15:24:43.286Z,45.10
2017-09-03T15:27:13.777Z,44.90
2017-09-03T15:29:44.114Z,45.40
2017-09-03T15:32:14.454Z,45.00
2017-09-03T15:34:44.909Z,45.50
2017-09-03T15:37:16.463Z,44.40
2017-09-03T15:39:47.810Z,45.30
2017-09-03T15:42:19.259Z,45.40
2017-09-03T15:44:50.178Z,45.30
2017-09-03T15:47:20.783Z,46.00
2017-09-03T15:49:51.402Z,46.90
2017-09-03T15:52:22.346Z,46.90
2017-09-03T15:54:53.367Z,47.90
2017-09-03T15:57:24.119Z,47.40
2017-09-03T15:59:55.064Z,46.50
2017-09-03T16:02:25.846Z,49.10
2017-09-03T16:04:56.470Z,49.10
2017-09-03T16:07:26.739Z,50.40
2017-09-03T16:10:01.217Z,50.40
2017-09-03T16:12:33.076Z,50.40
2017-09-03T16:15:07.944Z,51.10
2017-09-03T16:17:39.168Z,49.80
2017-09-03T16:20:09.825Z,49.50
2017-09-03T16:22:40.582Z,50.80
2017-09-03T16:25:11.393Z,51.20
2017-09-03T16:27:42.589Z,51.40
2017-09-03T16:30:14.034Z,51.40
2017-09-03T16:32:44.955Z,52.00
2017-09-03T16:35:20.450Z,52.50
2017-09-03T16:37:51.897Z,53.00
2017-09-03T16:40:29.775Z,53.00
2017-09-03T16:43:01.533Z,52.80
2017-09-03T16:45:32.685Z,53.00
2017-09-03T16:48:03.346Z,52.50
2017-09-03T16:50:34.241Z,52.90
2017-09-03T16:53:04.939Z,52.80
2017-09-03T16:55:43.128Z,52.30
2017-09-03T16:58:16.623Z,53.20
2017-09-03T17:00:47.772Z,53.60
2017-09-03T17:03:19.611Z,53.80
2017-09-03T17:05:51.337Z,53.40
2017-09-03T17:08:22.303Z,53.70
2017-09-03T17:10:53.812Z,53.90
2017-09-03T17:13:25.540Z,53.40
2017-09-03T17:15:58.187Z,53.70
2017-09-03T17:18:29.041Z,53.50
2017-09-03T17:21:00.565Z,54.10
2017-09-03T17:23:31.108Z,54.10
2017-09-03T17:26:02.237Z,54.20
2017-09-03T17:28:32.938Z,55.60
2017-09-03T17:31:03.418Z,55.40
2017-09-03T17:33:34.414Z,55.30
2017-09-03T17:36:05.514Z,55.70
2017-09-03T17:38:38.227Z,55.80
2017-09-03T17:41:10.079Z,56.50
2017-09-03T17:43:40.640Z,56.50
2017-09-03T17:46:11.562Z,57.10
2017-09-03T17:48:42.942Z,57.30
2017-09-03T17:51:13.417Z,57.30
2017-09-03T17:53:44.296Z,57.70
2017-09-03T17:56:14.833Z,58.00
2017-09-03T17:58:45.489Z,58.60
2017-09-03T18:01:16.038Z,59.00
2017-09-03T18:03:47.482Z,58.90
2017-09-03T18:06:18.228Z,59.30
2017-09-03T18:08:48.756Z,59.30
2017-09-03T18:11:22.231Z,59.80
2017-09-03T18:13:52.845Z,59.80
2017-09-03T18:16:23.602Z,59.80
2017-09-03T18:18:54.734Z,60.90
2017-09-03T18:21:25.429Z,60.90
2017-09-03T18:23:55.943Z,61.40
2017-09-03T18:26:27.918Z,61.80
2017-09-03T18:28:58.349Z,61.70
2017-09-03T18:31:29.682Z,62.20
2017-09-03T18:34:01.406Z,62.20
2017-09-03T18:36:32.410Z,62.50
2017-09-03T18:39:03.218Z,62.60
2017-09-03T18:41:33.792Z,62.90
2017-09-03T18:44:04.746Z,63.00
2017-09-03T18:46:36.154Z,63.60
2017-09-03T18:49:07.809Z,63.80
2017-09-03T18:51:40.136Z,63.80
2017-09-03T18:54:11.391Z,63.90
2017-09-03T18:56:41.833Z,63.80
2017-09-03T18:59:12.393Z,64.50
2017-09-03T19:01:43.422Z,65.40
2017-09-03T19:04:14.128Z,65.00
2017-09-03T19:06:44.733Z,65.50
2017-09-03T19:09:15.163Z,65.40
2017-09-03T19:11:45.806Z,65.40
2017-09-03T19:14:16.890Z,65.10
2017-09-03T19:16:47.549Z,65.90
2017-09-03T19:19:18.284Z,65.60
2017-09-03T19:21:49.350Z,65.60
2017-09-03T19:24:20.991Z,66.10
2017-09-03T19:26:51.826Z,66.10
2017-09-03T19:29:22.920Z,66.40
2017-09-03T19:31:53.328Z,65.90
2017-09-03T19:34:23.938Z,66.40
2017-09-03T19:36:54.481Z,66.40
2017-09-03T19:39:25.589Z,66.40
2017-09-03T19:41:57.368Z,66.60
2017-09-03T19:44:28.077Z,66.90
2017-09-03T19:46:59.402Z,66.90
2017-09-03T19:49:30.056Z,66.80
2017-09-03T19:52:08.921Z,67.00
2017-09-03T19:54:40.491Z,67.60
2017-09-03T19:57:10.798Z,67.50
2017-09-03T19:59:41.317Z,67.70
2017-09-03T20:02:11.972Z,67.50
2017-09-03T20:04:42.341Z,67.40
2017-09-03T20:07:13.311Z,67.20
2017-09-03T20:09:44.302Z,68.00
2017-09-03T20:12:14.786Z,67.60
2017-09-03T20:14:46.881Z,67.80
2017-09-03T20:17:17.891Z,67.80
2017-09-03T20:19:48.204Z,68.60
2017-09-03T20:22:18.734Z,69.30
2017-09-03T20:24:49.472Z,69.50
2017-09-03T20:27:23.049Z,69.80
2017-09-03T20:29:54.518Z,69.70
2017-09-03T20:32:25.408Z,69.70
2017-09-03T20:34:55.782Z,69.80
2017-09-03T20:37:27.031Z,69.80
2017-09-03T20:39:57.881Z,69.60
2017-09-03T20:42:28.463Z,69.40
2017-09-03T20:44:58.947Z,69.40
2017-09-03T20:47:31.166Z,69.70
2017-09-03T20:50:02.435Z,69.70
2017-09-03T20:52:32.957Z,69.50
2017-09-03T20:55:03.585Z,69.50
2017-09-03T20:57:34.147Z,69.40
2017-09-03T21:00:04.669Z,69.80
2017-09-03T21:02:35.160Z,70.10
2017-09-03T21:05:05.820Z,70.50
2017-09-03T21:07:36.399Z,71.10
2017-09-03T21:10:07.201Z,70.80
2017-09-03T21:12:38.409Z,72.00
2017-09-03T21:15:08.850Z,71.00
2017-09-03T21:17:40.375Z,71.50
2017-09-03T21:20:11.178Z,71.50
2017-09-03T21:22:41.636Z,71.30
2017-09-03T21:25:12.197Z,71.70
2017-09-03T21:27:43.237Z,71.40
2017-09-03T21:30:14.461Z,71.60
2017-09-03T21:32:44.921Z,71.60
2017-09-03T21:35:15.693Z,71.90
2017-09-03T21:37:46.329Z,71.40
2017-09-03T21:40:16.594Z,71.20
2017-09-03T21:42:46.898Z,71.10
2017-09-03T21:45:17.630Z,71.00
2017-09-03T21:47:48.076Z,71.20
2017-09-03T21:50:19.132Z,71.80
2017-09-03T21:52:50.644Z,71.10
2017-09-03T21:55:21.008Z,71.10
2017-09-03T21:57:51.506Z,71.10
2017-09-03T22:00:22.114Z,71.10
2017-09-03T22:02:52.633Z,71.50
2017-09-03T22:05:22.998Z,72.00
2017-09-03T22:07:53.871Z,72.20
2017-09-03T22:10:24.089Z,72.40
2017-09-03T22:12:55.210Z,71.80
2017-09-03T22:15:25.743Z,71.70
2017-09-03T22:17:56.301Z,72.00
2017-09-03T22:20:27.109Z,71.50
2017-09-03T22:22:58.457Z,71.60
2017-09-03T22:25:28.908Z,71.60
2017-09-03T22:28:00.065Z,71.70
2017-09-03T22:30:30.779Z,71.70
2017-09-03T22:33:01.383Z,72.20
2017-09-03T22:35:32.230Z,71.90
2017-09-03T22:38:02.932Z,71.60
2017-09-03T22:40:33.683Z,71.50
2017-09-03T22:43:04.567Z,71.40
2017-09-03T22:45:35.270Z,71.70
2017-09-03T22:48:05.921Z,71.70
2017-09-03T22:50:36.380Z,71.60
2017-09-03T22:53:07.106Z,72.20
2017-09-03T22:55:37.405Z,72.00
2017-09-03T22:58:07.800Z,71.80
2017-09-03T23:00:39.209Z,71.90
2017-09-03T23:03:09.958Z,72.50
2017-09-03T23:05:40.841Z,71.50
2017-09-03T23:08:11.851Z,71.30
2017-09-03T23:10:42.778Z,71.50
2017-09-03T23:13:13.580Z,71.50
2017-09-03T23:15:46.351Z,71.40
2017-09-03T23:18:17.073Z,71.30
2017-09-03T23:20:48.015Z,72.00
2017-09-03T23:23:19.005Z,71.70
2017-09-03T23:25:49.800Z,71.80
2017-09-03T23:28:20.742Z,72.00
2017-09-03T23:30:51.320Z,72.20
2017-09-03T23:33:22.098Z,72.30
2017-09-03T23:35:53.122Z,72.30
2017-09-03T23:38:24.302Z,72.30
2017-09-03T23:40:55.756Z,73.00
2017-09-03T23:43:26.202Z,72.90
2017-09-03T23:45:57.056Z,73.20
2017-09-03T23:48:27.790Z,73.60
2017-09-03T23:50:58.475Z,73.60
2017-09-03T23:53:29.931Z,74.00
2017-09-03T23:56:01.121Z,73.90
2017-09-03T23:58:32.584Z,73.40
